sensor_id;sensor_type;location;lat;lon;timestamp;P1;durP1;ratioP1;P2;durP2;ratioP2
47894;SDS011;33653;52.302;8.134;2024-03-23T00:53:03;7.55;;;2.72;;
47894;SDS011;33653;52.302;8.134;2024-03-23T00:55:32;10.18;;;3.25;;
47894;SDS011;33653;52.302;8.134;2024-03-23T00:57:59;7.38;;;2.75;;
47894;SDS011;33653;52.302;8.134;2024-03-23T01:00:27;13.25;;;3.38;;
47894;SDS011;33653;52.302;8.134;2024-03-23T01:02:54;5.78;;;2.63;;
47894;SDS011;33653;52.302;8.134;2024-03-23T01:05:22;14.43;;;3.00;;
47894;SDS011;33653;52.302;8.134;2024-03-23T01:07:49;8.68;;;2.35;;
47894;SDS011;33653;52.302;8.134;2024-03-23T01:10:16;8.90;;;2.80;;
47894;SDS011;33653;52.302;8.134;2024-03-23T01:12:44;11.52;;;2.72;;
47894;SDS011;33653;52.302;8.134;2024-03-23T01:15:12;11.15;;;2.85;;
47894;SDS011;33653;52.302;8.134;2024-03-23T01:17:39;5.15;;;2.58;;
47894;SDS011;33653;52.302;8.134;2024-03-23T01:20:07;4.50;;;2.38;;
47894;SDS011;33653;52.302;8.134;2024-03-23T01:22:35;8.23;;;2.30;;
47894;SDS011;33653;52.302;8.134;2024-03-23T01:25:02;2.60;;;2.13;;
47894;SDS011;33653;52.302;8.134;2024-03-23T01:27:30;9.68;;;2.63;;
47894;SDS011;33653;52.302;8.134;2024-03-23T01:29:57;6.80;;;2.15;;
47894;SDS011;33653;52.302;8.134;2024-03-23T01:32:24;4.57;;;2.65;;
47894;SDS011;33653;52.302;8.134;2024-03-23T01:34:52;5.90;;;2.10;;
47894;SDS011;33653;52.302;8.134;2024-03-23T01:37:19;14.05;;;2.83;;
47894;SDS011;33653;52.302;8.134;2024-03-23T01:39:47;10.65;;;3.38;;
47894;SDS011;33653;52.302;8.134;2024-03-23T01:42:14;11.70;;;2.22;;
47894;SDS011;33653;52.302;8.134;2024-03-23T01:44:41;5.30;;;1.95;;
47894;SDS011;33653;52.302;8.134;2024-03-23T01:47:09;10.85;;;2.45;;
47894;SDS011;33653;52.302;8.134;2024-03-23T01:49:37;3.95;;;2.28;;
47894;SDS011;33653;52.302;8.134;2024-03-23T01:52:04;8.15;;;2.85;;
47894;SDS011;33653;52.302;8.134;2024-03-23T01:54:32;12.48;;;3.33;;
47894;SDS011;33653;52.302;8.134;2024-03-23T01:56:59;5.70;;;2.58;;
47894;SDS011;33653;52.302;8.134;2024-03-23T01:59:27;3.33;;;2.67;;
47894;SDS011;33653;52.302;8.134;2024-03-23T02:01:56;7.28;;;2.88;;
47894;SDS011;33653;52.302;8.134;2024-03-23T02:04:24;12.23;;;3.00;;
47894;SDS011;33653;52.302;8.134;2024-03-23T02:06:55;8.60;;;3.13;;
47894;SDS011;33653;52.302;8.134;2024-03-23T02:09:22;14.27;;;3.17;;
47894;SDS011;33653;52.302;8.134;2024-03-23T02:11:49;9.32;;;3.60;;
47894;SDS011;33653;52.302;8.134;2024-03-23T02:14:17;5.05;;;2.47;;
47894;SDS011;33653;52.302;8.134;2024-03-23T02:16:44;8.82;;;3.17;;
47894;SDS011;33653;52.302;8.134;2024-03-23T02:19:13;6.25;;;2.80;;
47894;SDS011;33653;52.302;8.134;2024-03-23T02:21:40;13.65;;;3.10;;
47894;SDS011;33653;52.302;8.134;2024-03-23T02:24:08;10.70;;;4.13;;
47894;SDS011;33653;52.302;8.134;2024-03-23T02:26:35;12.65;;;2.90;;
47894;SDS011;33653;52.302;8.134;2024-03-23T02:29:03;6.22;;;3.08;;
47894;SDS011;33653;52.302;8.134;2024-03-23T02:31:30;7.65;;;3.20;;
47894;SDS011;33653;52.302;8.134;2024-03-23T02:33:58;8.05;;;3.17;;
47894;SDS011;33653;52.302;8.134;2024-03-23T02:36:25;7.70;;;4.07;;
47894;SDS011;33653;52.302;8.134;2024-03-23T02:38:52;14.68;;;3.20;;
47894;SDS011;33653;52.302;8.134;2024-03-23T02:41:20;11.50;;;3.55;;
47894;SDS011;33653;52.302;8.134;2024-03-23T02:43:49;9.68;;;3.75;;
47894;SDS011;33653;52.302;8.134;2024-03-23T02:46:17;6.63;;;3.58;;
47894;SDS011;33653;52.302;8.134;2024-03-23T02:48:44;5.20;;;3.00;;
47894;SDS011;33653;52.302;8.134;2024-03-23T02:51:15;9.63;;;3.15;;
47894;SDS011;33653;52.302;8.134;2024-03-23T02:53:42;7.07;;;2.42;;
47894;SDS011;33653;52.302;8.134;2024-03-23T02:56:09;6.00;;;3.13;;
47894;SDS011;33653;52.302;8.134;2024-03-23T02:58:45;9.60;;;2.85;;
47894;SDS011;33653;52.302;8.134;2024-03-23T03:01:12;13.18;;;3.47;;
47894;SDS011;33653;52.302;8.134;2024-03-23T03:03:42;9.52;;;3.35;;
47894;SDS011;33653;52.302;8.134;2024-03-23T03:06:10;5.78;;;2.90;;
47894;SDS011;33653;52.302;8.134;2024-03-23T03:08:38;7.80;;;3.10;;
47894;SDS011;33653;52.302;8.134;2024-03-23T03:11:10;4.70;;;2.65;;
47894;SDS011;33653;52.302;8.134;2024-03-23T03:13:38;5.80;;;3.10;;
47894;SDS011;33653;52.302;8.134;2024-03-23T03:16:08;6.38;;;3.03;;
47894;SDS011;33653;52.302;8.134;2024-03-23T03:18:37;12.20;;;3.40;;
47894;SDS011;33653;52.302;8.134;2024-03-23T03:21:06;7.45;;;3.30;;
47894;SDS011;33653;52.302;8.134;2024-03-23T03:23:37;2.90;;;2.58;;
47894;SDS011;33653;52.302;8.134;2024-03-23T03:26:05;13.50;;;2.90;;
47894;SDS011;33653;52.302;8.134;2024-03-23T03:28:32;5.85;;;2.97;;
47894;SDS011;33653;52.302;8.134;2024-03-23T03:31:01;11.15;;;3.15;;
47894;SDS011;33653;52.302;8.134;2024-03-23T03:33:28;4.70;;;2.88;;
47894;SDS011;33653;52.302;8.134;2024-03-23T03:35:59;5.57;;;2.65;;
47894;SDS011;33653;52.302;8.134;2024-03-23T03:38:32;7.60;;;3.97;;
47894;SDS011;33653;52.302;8.134;2024-03-23T03:41:04;7.88;;;3.20;;
47894;SDS011;33653;52.302;8.134;2024-03-23T03:43:32;7.82;;;3.20;;
47894;SDS011;33653;52.302;8.134;2024-03-23T03:46:00;8.23;;;2.50;;
47894;SDS011;33653;52.302;8.134;2024-03-23T03:48:28;7.93;;;3.42;;
47894;SDS011;33653;52.302;8.134;2024-03-23T03:50:56;8.52;;;3.30;;
47894;SDS011;33653;52.302;8.134;2024-03-23T03:53:23;13.35;;;3.72;;
47894;SDS011;33653;52.302;8.134;2024-03-23T03:55:51;9.80;;;3.33;;
47894;SDS011;33653;52.302;8.134;2024-03-23T03:58:18;16.00;;;3.70;;
47894;SDS011;33653;52.302;8.134;2024-03-23T04:00:45;6.35;;;3.08;;
47894;SDS011;33653;52.302;8.134;2024-03-23T04:03:19;5.38;;;2.50;;
47894;SDS011;33653;52.302;8.134;2024-03-23T04:05:51;6.38;;;3.50;;
47894;SDS011;33653;52.302;8.134;2024-03-23T04:08:20;13.52;;;2.63;;
47894;SDS011;33653;52.302;8.134;2024-03-23T04:10:47;9.05;;;2.92;;
47894;SDS011;33653;52.302;8.134;2024-03-23T04:13:15;12.45;;;2.85;;
47894;SDS011;33653;52.302;8.134;2024-03-23T04:15:42;7.88;;;3.92;;
47894;SDS011;33653;52.302;8.134;2024-03-23T04:18:10;9.75;;;3.88;;
47894;SDS011;33653;52.302;8.134;2024-03-23T04:20:37;19.35;;;4.35;;
47894;SDS011;33653;52.302;8.134;2024-03-23T04:23:05;14.02;;;4.25;;
47894;SDS011;33653;52.302;8.134;2024-03-23T04:25:32;10.15;;;4.15;;
47894;SDS011;33653;52.302;8.134;2024-03-23T04:28:00;7.45;;;2.70;;
47894;SDS011;33653;52.302;8.134;2024-03-23T04:30:27;7.15;;;3.03;;
47894;SDS011;33653;52.302;8.134;2024-03-23T04:32:55;10.07;;;3.60;;
47894;SDS011;33653;52.302;8.134;2024-03-23T04:35:24;15.63;;;3.40;;
47894;SDS011;33653;52.302;8.134;2024-03-23T04:37:53;14.38;;;3.83;;
47894;SDS011;33653;52.302;8.134;2024-03-23T04:40:21;6.32;;;3.17;;
47894;SDS011;33653;52.302;8.134;2024-03-23T04:42:49;6.18;;;3.67;;
47894;SDS011;33653;52.302;8.134;2024-03-23T04:45:16;10.27;;;3.90;;
47894;SDS011;33653;52.302;8.134;2024-03-23T04:47:44;11.73;;;3.15;;
47894;SDS011;33653;52.302;8.134;2024-03-23T04:50:11;9.30;;;3.58;;
47894;SDS011;33653;52.302;8.134;2024-03-23T04:52:39;10.85;;;4.30;;
47894;SDS011;33653;52.302;8.134;2024-03-23T04:55:09;6.80;;;2.83;;
47894;SDS011;33653;52.302;8.134;2024-03-23T04:57:38;19.02;;;3.83;;
47894;SDS011;33653;52.302;8.134;2024-03-23T05:00:06;28.10;;;4.07;;
47894;SDS011;33653;52.302;8.134;2024-03-23T05:02:44;16.25;;;4.13;;
47894;SDS011;33653;52.302;8.134;2024-03-23T05:05:11;10.68;;;3.58;;
47894;SDS011;33653;52.302;8.134;2024-03-23T05:07:39;13.63;;;3.13;;
47894;SDS011;33653;52.302;8.134;2024-03-23T05:10:09;13.88;;;3.67;;
47894;SDS011;33653;52.302;8.134;2024-03-23T05:12:37;13.05;;;3.00;;
47894;SDS011;33653;52.302;8.134;2024-03-23T05:15:05;8.55;;;3.72;;
47894;SDS011;33653;52.302;8.134;2024-03-23T05:17:36;6.20;;;3.38;;
47894;SDS011;33653;52.302;8.134;2024-03-23T05:20:04;7.00;;;3.45;;
47894;SDS011;33653;52.302;8.134;2024-03-23T05:22:41;9.93;;;3.38;;
47894;SDS011;33653;52.302;8.134;2024-03-23T05:25:09;8.77;;;4.03;;
47894;SDS011;33653;52.302;8.134;2024-03-23T05:27:37;7.75;;;3.65;;
47894;SDS011;33653;52.302;8.134;2024-03-23T05:30:05;12.88;;;3.45;;
47894;SDS011;33653;52.302;8.134;2024-03-23T05:32:33;7.80;;;3.85;;
47894;SDS011;33653;52.302;8.134;2024-03-23T05:35:00;6.68;;;3.58;;
47894;SDS011;33653;52.302;8.134;2024-03-23T05:37:28;13.90;;;4.88;;
47894;SDS011;33653;52.302;8.134;2024-03-23T05:39:57;9.10;;;3.63;;
47894;SDS011;33653;52.302;8.134;2024-03-23T05:42:24;9.35;;;3.13;;
47894;SDS011;33653;52.302;8.134;2024-03-23T05:44:52;8.55;;;3.03;;
47894;SDS011;33653;52.302;8.134;2024-03-23T05:47:20;19.85;;;4.13;;
47894;SDS011;33653;52.302;8.134;2024-03-23T05:49:47;11.40;;;3.53;;
47894;SDS011;33653;52.302;8.134;2024-03-23T05:52:17;5.32;;;3.40;;
47894;SDS011;33653;52.302;8.134;2024-03-23T05:54:47;16.42;;;3.53;;
47894;SDS011;33653;52.302;8.134;2024-03-23T05:57:14;7.05;;;3.78;;
47894;SDS011;33653;52.302;8.134;2024-03-23T05:59:43;8.20;;;3.63;;
47894;SDS011;33653;52.302;8.134;2024-03-23T06:02:11;5.38;;;3.38;;
47894;SDS011;33653;52.302;8.134;2024-03-23T06:04:42;7.30;;;3.35;;
47894;SDS011;33653;52.302;8.134;2024-03-23T06:07:12;8.60;;;3.58;;
47894;SDS011;33653;52.302;8.134;2024-03-23T06:09:41;11.77;;;3.95;;
47894;SDS011;33653;52.302;8.134;2024-03-23T06:12:08;9.60;;;4.97;;
47894;SDS011;33653;52.302;8.134;2024-03-23T06:14:36;9.13;;;4.50;;
47894;SDS011;33653;52.302;8.134;2024-03-23T06:17:03;6.07;;;3.15;;
47894;SDS011;33653;52.302;8.134;2024-03-23T06:19:32;8.77;;;3.95;;
47894;SDS011;33653;52.302;8.134;2024-03-23T06:21:59;17.20;;;5.13;;
47894;SDS011;33653;52.302;8.134;2024-03-23T06:24:27;12.70;;;5.25;;
47894;SDS011;33653;52.302;8.134;2024-03-23T06:26:54;21.88;;;4.68;;
47894;SDS011;33653;52.302;8.134;2024-03-23T06:29:21;21.40;;;5.90;;
47894;SDS011;33653;52.302;8.134;2024-03-23T06:31:52;11.32;;;4.05;;
47894;SDS011;33653;52.302;8.134;2024-03-23T06:34:21;10.68;;;5.10;;
47894;SDS011;33653;52.302;8.134;2024-03-23T06:36:54;20.83;;;4.32;;
47894;SDS011;33653;52.302;8.134;2024-03-23T06:39:22;12.73;;;4.57;;
47894;SDS011;33653;52.302;8.134;2024-03-23T06:41:51;11.90;;;4.82;;
47894;SDS011;33653;52.302;8.134;2024-03-23T06:44:20;13.52;;;6.00;;
47894;SDS011;33653;52.302;8.134;2024-03-23T06:46:49;18.08;;;4.65;;
47894;SDS011;33653;52.302;8.134;2024-03-23T06:49:18;14.85;;;6.05;;
47894;SDS011;33653;52.302;8.134;2024-03-23T06:51:47;13.57;;;5.53;;
47894;SDS011;33653;52.302;8.134;2024-03-23T06:54:14;16.38;;;6.20;;
47894;SDS011;33653;52.302;8.134;2024-03-23T06:59:13;20.65;;;4.50;;
47894;SDS011;33653;52.302;8.134;2024-03-23T07:01:40;17.58;;;5.18;;
47894;SDS011;33653;52.302;8.134;2024-03-23T07:04:08;9.60;;;4.63;;
47894;SDS011;33653;52.302;8.134;2024-03-23T07:06:41;10.82;;;5.13;;
47894;SDS011;33653;52.302;8.134;2024-03-23T07:09:10;10.10;;;5.10;;
47894;SDS011;33653;52.302;8.134;2024-03-23T07:11:38;12.52;;;5.28;;
47894;SDS011;33653;52.302;8.134;2024-03-23T07:14:05;12.60;;;5.15;;
47894;SDS011;33653;52.302;8.134;2024-03-23T07:16:33;7.28;;;5.32;;
47894;SDS011;33653;52.302;8.134;2024-03-23T07:19:00;13.30;;;6.32;;
47894;SDS011;33653;52.302;8.134;2024-03-23T07:21:28;16.48;;;6.85;;
47894;SDS011;33653;52.302;8.134;2024-03-23T07:23:56;12.93;;;6.15;;
47894;SDS011;33653;52.302;8.134;2024-03-23T07:26:23;14.40;;;5.97;;
47894;SDS011;33653;52.302;8.134;2024-03-23T07:28:51;11.90;;;6.85;;
47894;SDS011;33653;52.302;8.134;2024-03-23T07:31:19;13.45;;;6.47;;
47894;SDS011;33653;52.302;8.134;2024-03-23T07:33:48;21.83;;;6.20;;
47894;SDS011;33653;52.302;8.134;2024-03-23T07:36:15;20.33;;;5.05;;
47894;SDS011;33653;52.302;8.134;2024-03-23T07:38:44;11.05;;;4.57;;
47894;SDS011;33653;52.302;8.134;2024-03-23T07:41:14;9.05;;;4.40;;
47894;SDS011;33653;52.302;8.134;2024-03-23T07:43:44;8.73;;;5.18;;
47894;SDS011;33653;52.302;8.134;2024-03-23T07:46:12;14.95;;;4.85;;
47894;SDS011;33653;52.302;8.134;2024-03-23T07:48:41;8.23;;;4.60;;
47894;SDS011;33653;52.302;8.134;2024-03-23T07:51:09;10.70;;;4.90;;
47894;SDS011;33653;52.302;8.134;2024-03-23T07:53:44;11.07;;;4.13;;
47894;SDS011;33653;52.302;8.134;2024-03-23T07:56:15;13.40;;;4.13;;
47894;SDS011;33653;52.302;8.134;2024-03-23T07:58:45;8.38;;;4.93;;
47894;SDS011;33653;52.302;8.134;2024-03-23T08:01:13;12.77;;;5.20;;
47894;SDS011;33653;52.302;8.134;2024-03-23T08:03:45;17.67;;;4.32;;
47894;SDS011;33653;52.302;8.134;2024-03-23T08:06:13;11.88;;;4.85;;
47894;SDS011;33653;52.302;8.134;2024-03-23T08:08:59;15.23;;;4.25;;
47894;SDS011;33653;52.302;8.134;2024-03-23T08:11:30;14.60;;;4.55;;
47894;SDS011;33653;52.302;8.134;2024-03-23T08:14:20;10.27;;;4.22;;
47894;SDS011;33653;52.302;8.134;2024-03-23T08:16:48;17.30;;;4.88;;
47894;SDS011;33653;52.302;8.134;2024-03-23T08:19:17;8.32;;;3.90;;
47894;SDS011;33653;52.302;8.134;2024-03-23T08:21:46;9.05;;;4.85;;
47894;SDS011;33653;52.302;8.134;2024-03-23T08:24:14;16.85;;;4.47;;
47894;SDS011;33653;52.302;8.134;2024-03-23T08:26:43;7.18;;;3.08;;
47894;SDS011;33653;52.302;8.134;2024-03-23T08:29:11;11.23;;;4.40;;
47894;SDS011;33653;52.302;8.134;2024-03-23T08:31:42;6.35;;;3.30;;
47894;SDS011;33653;52.302;8.134;2024-03-23T08:34:09;18.50;;;3.83;;
47894;SDS011;33653;52.302;8.134;2024-03-23T08:36:37;6.40;;;3.67;;
47894;SDS011;33653;52.302;8.134;2024-03-23T08:39:04;4.20;;;2.63;;
47894;SDS011;33653;52.302;8.134;2024-03-23T08:41:32;7.13;;;3.75;;
47894;SDS011;33653;52.302;8.134;2024-03-23T08:43:59;5.93;;;3.58;;
47894;SDS011;33653;52.302;8.134;2024-03-23T08:46:26;8.05;;;3.08;;
47894;SDS011;33653;52.302;8.134;2024-03-23T08:48:54;3.78;;;2.75;;
47894;SDS011;33653;52.302;8.134;2024-03-23T08:53:53;8.23;;;3.85;;
47894;SDS011;33653;52.302;8.134;2024-03-23T08:56:20;15.10;;;4.03;;
47894;SDS011;33653;52.302;8.134;2024-03-23T08:58:48;6.97;;;2.97;;
47894;SDS011;33653;52.302;8.134;2024-03-23T09:01:15;4.13;;;2.70;;
47894;SDS011;33653;52.302;8.134;2024-03-23T09:03:43;6.07;;;3.15;;
47894;SDS011;33653;52.302;8.134;2024-03-23T09:06:12;10.15;;;3.30;;
47894;SDS011;33653;52.302;8.134;2024-03-23T09:08:40;6.60;;;3.05;;
47894;SDS011;33653;52.302;8.134;2024-03-23T09:11:08;6.78;;;2.38;;
47894;SDS011;33653;52.302;8.134;2024-03-23T09:13:38;4.05;;;2.65;;
47894;SDS011;33653;52.302;8.134;2024-03-23T09:16:06;6.10;;;2.30;;
47894;SDS011;33653;52.302;8.134;2024-03-23T09:18:35;8.20;;;2.45;;
47894;SDS011;33653;52.302;8.134;2024-03-23T09:21:10;9.27;;;2.38;;
47894;SDS011;33653;52.302;8.134;2024-03-23T09:23:42;4.65;;;2.05;;
47894;SDS011;33653;52.302;8.134;2024-03-23T09:26:11;4.70;;;1.88;;
47894;SDS011;33653;52.302;8.134;2024-03-23T09:28:38;3.35;;;2.17;;
47894;SDS011;33653;52.302;8.134;2024-03-23T09:31:06;5.90;;;2.22;;
47894;SDS011;33653;52.302;8.134;2024-03-23T09:33:36;11.90;;;2.42;;
47894;SDS011;33653;52.302;8.134;2024-03-23T09:36:03;2.03;;;1.52;;
47894;SDS011;33653;52.302;8.134;2024-03-23T09:38:32;3.08;;;1.77;;
47894;SDS011;33653;52.302;8.134;2024-03-23T09:41:00;8.18;;;2.70;;
47894;SDS011;33653;52.302;8.134;2024-03-23T09:43:33;7.47;;;2.70;;
47894;SDS011;33653;52.302;8.134;2024-03-23T09:46:01;4.90;;;2.55;;
47894;SDS011;33653;52.302;8.134;2024-03-23T09:48:30;3.38;;;2.10;;
47894;SDS011;33653;52.302;8.134;2024-03-23T09:50:57;3.35;;;1.85;;
47894;SDS011;33653;52.302;8.134;2024-03-23T09:53:28;3.53;;;1.95;;
47894;SDS011;33653;52.302;8.134;2024-03-23T09:55:56;4.72;;;1.70;;
47894;SDS011;33653;52.302;8.134;2024-03-23T09:58:23;4.85;;;2.15;;
47894;SDS011;33653;52.302;8.134;2024-03-23T10:00:51;2.17;;;1.58;;
47894;SDS011;33653;52.302;8.134;2024-03-23T10:03:23;4.82;;;2.10;;
47894;SDS011;33653;52.302;8.134;2024-03-23T10:06:10;7.10;;;2.58;;
47894;SDS011;33653;52.302;8.134;2024-03-23T10:08:37;2.95;;;1.88;;
47894;SDS011;33653;52.302;8.134;2024-03-23T10:11:16;6.40;;;2.92;;
47894;SDS011;33653;52.302;8.134;2024-03-23T10:13:47;6.28;;;1.83;;
47894;SDS011;33653;52.302;8.134;2024-03-23T10:16:22;3.83;;;1.70;;
47894;SDS011;33653;52.302;8.134;2024-03-23T10:18:50;2.08;;;1.50;;
47894;SDS011;33653;52.302;8.134;2024-03-23T10:23:55;4.28;;;1.65;;
47894;SDS011;33653;52.302;8.134;2024-03-23T10:28:59;4.93;;;2.42;;
47894;SDS011;33653;52.302;8.134;2024-03-23T10:31:28;3.30;;;1.73;;
47894;SDS011;33653;52.302;8.134;2024-03-23T10:34:05;6.43;;;2.55;;
47894;SDS011;33653;52.302;8.134;2024-03-23T10:36:33;3.50;;;2.00;;
47894;SDS011;33653;52.302;8.134;2024-03-23T10:39:02;5.10;;;2.38;;
47894;SDS011;33653;52.302;8.134;2024-03-23T10:41:31;6.78;;;2.17;;
47894;SDS011;33653;52.302;8.134;2024-03-23T10:44:01;5.40;;;1.83;;
47894;SDS011;33653;52.302;8.134;2024-03-23T10:46:37;3.10;;;1.58;;
47894;SDS011;33653;52.302;8.134;2024-03-23T10:49:06;4.07;;;1.38;;
47894;SDS011;33653;52.302;8.134;2024-03-23T10:51:34;6.13;;;1.30;;
47894;SDS011;33653;52.302;8.134;2024-03-23T10:54:04;1.23;;;1.13;;
47894;SDS011;33653;52.302;8.134;2024-03-23T10:56:34;1.52;;;1.42;;
47894;SDS011;33653;52.302;8.134;2024-03-23T10:59:03;1.40;;;1.30;;
47894;SDS011;33653;52.302;8.134;2024-03-23T11:04:01;1.23;;;1.20;;
47894;SDS011;33653;52.302;8.134;2024-03-23T11:06:39;2.05;;;1.25;;
47894;SDS011;33653;52.302;8.134;2024-03-23T11:15:04;1.63;;;1.45;;
47894;SDS011;33653;52.302;8.134;2024-03-23T11:17:42;6.00;;;1.50;;
47894;SDS011;33653;52.302;8.134;2024-03-23T11:20:35;2.13;;;1.25;;
47894;SDS011;33653;52.302;8.134;2024-03-23T11:23:06;1.27;;;1.17;;
47894;SDS011;33653;52.302;8.134;2024-03-23T11:28:10;2.03;;;1.10;;
47894;SDS011;33653;52.302;8.134;2024-03-23T11:30:42;1.10;;;1.10;;
47894;SDS011;33653;52.302;8.134;2024-03-23T11:33:09;1.00;;;1.00;;
47894;SDS011;33653;52.302;8.134;2024-03-23T11:35:39;1.08;;;1.00;;
47894;SDS011;33653;52.302;8.134;2024-03-23T11:38:15;1.00;;;1.00;;
47894;SDS011;33653;52.302;8.134;2024-03-23T11:43:20;1.00;;;1.00;;
47894;SDS011;33653;52.302;8.134;2024-03-23T11:45:51;2.40;;;1.20;;
47894;SDS011;33653;52.302;8.134;2024-03-23T11:48:20;0.70;;;0.70;;
47894;SDS011;33653;52.302;8.134;2024-03-23T11:50:58;0.90;;;0.90;;
47894;SDS011;33653;52.302;8.134;2024-03-23T11:53:26;0.95;;;0.95;;
47894;SDS011;33653;52.302;8.134;2024-03-23T11:56:05;2.42;;;1.23;;
47894;SDS011;33653;52.302;8.134;2024-03-23T11:58:34;1.65;;;1.10;;
47894;SDS011;33653;52.302;8.134;2024-03-23T12:01:02;1.25;;;1.15;;
47894;SDS011;33653;52.302;8.134;2024-03-23T12:06:22;1.23;;;1.13;;
47894;SDS011;33653;52.302;8.134;2024-03-23T12:11:43;1.92;;;1.40;;
47894;SDS011;33653;52.302;8.134;2024-03-23T12:14:10;2.05;;;1.00;;
47894;SDS011;33653;52.302;8.134;2024-03-23T12:19:21;1.20;;;1.10;;
47894;SDS011;33653;52.302;8.134;2024-03-23T12:21:49;3.92;;;1.10;;
47894;SDS011;33653;52.302;8.134;2024-03-23T12:24:18;2.33;;;1.00;;
47894;SDS011;33653;52.302;8.134;2024-03-23T12:26:45;2.33;;;1.38;;
47894;SDS011;33653;52.302;8.134;2024-03-23T12:29:16;1.35;;;1.25;;
47894;SDS011;33653;52.302;8.134;2024-03-23T12:31:44;1.45;;;1.30;;
47894;SDS011;33653;52.302;8.134;2024-03-23T12:34:11;1.40;;;1.30;;
47894;SDS011;33653;52.302;8.134;2024-03-23T12:36:40;2.00;;;1.52;;
47894;SDS011;33653;52.302;8.134;2024-03-23T12:39:07;6.07;;;1.48;;
47894;SDS011;33653;52.302;8.134;2024-03-23T12:41:35;2.05;;;1.65;;
47894;SDS011;33653;52.302;8.134;2024-03-23T12:44:03;2.90;;;1.88;;
47894;SDS011;33653;52.302;8.134;2024-03-23T12:46:31;3.28;;;1.60;;
47894;SDS011;33653;52.302;8.134;2024-03-23T12:51:54;4.38;;;1.55;;
47894;SDS011;33653;52.302;8.134;2024-03-23T12:54:22;2.15;;;1.42;;
47894;SDS011;33653;52.302;8.134;2024-03-23T12:56:53;1.00;;;1.00;;
47894;SDS011;33653;52.302;8.134;2024-03-23T12:59:21;2.38;;;1.17;;
47894;SDS011;33653;52.302;8.134;2024-03-23T13:01:52;3.63;;;1.38;;
47894;SDS011;33653;52.302;8.134;2024-03-23T13:04:21;1.40;;;1.30;;
47894;SDS011;33653;52.302;8.134;2024-03-23T13:06:49;1.42;;;1.33;;
47894;SDS011;33653;52.302;8.134;2024-03-23T13:09:16;1.40;;;1.30;;
47894;SDS011;33653;52.302;8.134;2024-03-23T13:14:41;2.53;;;1.40;;
47894;SDS011;33653;52.302;8.134;2024-03-23T13:17:11;1.08;;;1.02;;
47894;SDS011;33653;52.302;8.134;2024-03-23T13:19:47;2.13;;;1.40;;
47894;SDS011;33653;52.302;8.134;2024-03-23T13:25:09;2.63;;;1.10;;
47894;SDS011;33653;52.302;8.134;2024-03-23T13:27:37;2.33;;;1.40;;
47894;SDS011;33653;52.302;8.134;2024-03-23T13:30:05;2.42;;;1.48;;
47894;SDS011;33653;52.302;8.134;2024-03-23T13:32:38;5.22;;;1.50;;
47894;SDS011;33653;52.302;8.134;2024-03-23T13:35:06;1.70;;;1.33;;
47894;SDS011;33653;52.302;8.134;2024-03-23T13:37:33;5.03;;;1.42;;
47894;SDS011;33653;52.302;8.134;2024-03-23T13:40:01;2.90;;;1.00;;
47894;SDS011;33653;52.302;8.134;2024-03-23T13:42:28;2.85;;;1.35;;
47894;SDS011;33653;52.302;8.134;2024-03-23T13:45:00;2.90;;;1.30;;
47894;SDS011;33653;52.302;8.134;2024-03-23T13:47:39;4.32;;;1.40;;
47894;SDS011;33653;52.302;8.134;2024-03-23T13:50:07;4.28;;;1.38;;
47894;SDS011;33653;52.302;8.134;2024-03-23T13:52:35;1.90;;;1.20;;
47894;SDS011;33653;52.302;8.134;2024-03-23T13:55:03;3.42;;;1.33;;
47894;SDS011;33653;52.302;8.134;2024-03-23T13:57:33;2.72;;;1.77;;
47894;SDS011;33653;52.302;8.134;2024-03-23T14:00:01;2.10;;;1.65;;
47894;SDS011;33653;52.302;8.134;2024-03-23T14:02:39;2.72;;;1.60;;
47894;SDS011;33653;52.302;8.134;2024-03-23T14:05:07;1.05;;;0.95;;
47894;SDS011;33653;52.302;8.134;2024-03-23T14:10:27;1.23;;;1.13;;
47894;SDS011;33653;52.302;8.134;2024-03-23T14:12:55;0.77;;;0.77;;
47894;SDS011;33653;52.302;8.134;2024-03-23T14:15:22;1.38;;;1.10;;
47894;SDS011;33653;52.302;8.134;2024-03-23T14:17:50;0.73;;;0.73;;
47894;SDS011;33653;52.302;8.134;2024-03-23T14:20:17;3.35;;;1.25;;
47894;SDS011;33653;52.302;8.134;2024-03-23T14:22:46;1.05;;;1.00;;
47894;SDS011;33653;52.302;8.134;2024-03-23T14:25:14;1.00;;;1.00;;
47894;SDS011;33653;52.302;8.134;2024-03-23T14:27:45;1.90;;;1.00;;
47894;SDS011;33653;52.302;8.134;2024-03-23T14:32:48;3.13;;;1.33;;
47894;SDS011;33653;52.302;8.134;2024-03-23T14:35:16;1.08;;;0.98;;
47894;SDS011;33653;52.302;8.134;2024-03-23T14:37:43;0.95;;;0.95;;
47894;SDS011;33653;52.302;8.134;2024-03-23T14:40:13;3.00;;;0.95;;
47894;SDS011;33653;52.302;8.134;2024-03-23T14:42:41;1.13;;;1.05;;
47894;SDS011;33653;52.302;8.134;2024-03-23T14:48:02;1.58;;;0.90;;
47894;SDS011;33653;52.302;8.134;2024-03-23T14:50:39;3.55;;;1.10;;
47894;SDS011;33653;52.302;8.134;2024-03-23T14:53:07;4.93;;;1.40;;
47894;SDS011;33653;52.302;8.134;2024-03-23T14:55:34;2.47;;;1.35;;
47894;SDS011;33653;52.302;8.134;2024-03-23T14:58:02;1.85;;;0.90;;
47894;SDS011;33653;52.302;8.134;2024-03-23T15:00:31;2.60;;;1.13;;
47894;SDS011;33653;52.302;8.134;2024-03-23T15:02:59;1.38;;;0.70;;
47894;SDS011;33653;52.302;8.134;2024-03-23T15:10:51;4.03;;;1.40;;
47894;SDS011;33653;52.302;8.134;2024-03-23T15:13:21;4.95;;;1.73;;
47894;SDS011;33653;52.302;8.134;2024-03-23T15:15:49;7.22;;;1.50;;
47894;SDS011;33653;52.302;8.134;2024-03-23T15:18:18;4.40;;;1.33;;
47894;SDS011;33653;52.302;8.134;2024-03-23T15:20:52;4.07;;;1.60;;
47894;SDS011;33653;52.302;8.134;2024-03-23T15:23:28;5.30;;;1.48;;
47894;SDS011;33653;52.302;8.134;2024-03-23T15:25:56;2.67;;;1.35;;
47894;SDS011;33653;52.302;8.134;2024-03-23T15:28:25;8.10;;;1.40;;
47894;SDS011;33653;52.302;8.134;2024-03-23T15:31:07;1.40;;;1.30;;
47894;SDS011;33653;52.302;8.134;2024-03-23T15:33:38;3.83;;;1.63;;
47894;SDS011;33653;52.302;8.134;2024-03-23T15:36:05;6.88;;;1.75;;
47894;SDS011;33653;52.302;8.134;2024-03-23T15:38:33;1.85;;;1.20;;
47894;SDS011;33653;52.302;8.134;2024-03-23T15:41:01;2.47;;;1.30;;
47894;SDS011;33653;52.302;8.134;2024-03-23T15:43:30;6.07;;;1.52;;
47894;SDS011;33653;52.302;8.134;2024-03-23T15:45:57;5.45;;;1.95;;
47894;SDS011;33653;52.302;8.134;2024-03-23T15:48:26;2.30;;;1.27;;
47894;SDS011;33653;52.302;8.134;2024-03-23T15:50:56;3.50;;;1.33;;
47894;SDS011;33653;52.302;8.134;2024-03-23T15:53:26;3.88;;;1.30;;
47894;SDS011;33653;52.302;8.134;2024-03-23T15:58:25;5.88;;;1.38;;
47894;SDS011;33653;52.302;8.134;2024-03-23T16:01:12;3.43;;;1.40;;
47894;SDS011;33653;52.302;8.134;2024-03-23T16:03:39;1.98;;;1.60;;
47894;SDS011;33653;52.302;8.134;2024-03-23T16:06:10;4.70;;;1.42;;
47894;SDS011;33653;52.302;8.134;2024-03-23T16:08:40;2.53;;;1.50;;
47894;SDS011;33653;52.302;8.134;2024-03-23T16:11:09;1.55;;;1.25;;
47894;SDS011;33653;52.302;8.134;2024-03-23T16:13:37;5.45;;;1.50;;
47894;SDS011;33653;52.302;8.134;2024-03-23T16:16:06;1.95;;;1.38;;
47894;SDS011;33653;52.302;8.134;2024-03-23T16:18:36;1.40;;;1.30;;
47894;SDS011;33653;52.302;8.134;2024-03-23T16:23:47;1.83;;;1.45;;
47894;SDS011;33653;52.302;8.134;2024-03-23T16:28:45;2.97;;;1.50;;
47894;SDS011;33653;52.302;8.134;2024-03-23T16:31:16;1.13;;;0.90;;
47894;SDS011;33653;52.302;8.134;2024-03-23T16:33:44;9.98;;;1.42;;
47894;SDS011;33653;52.302;8.134;2024-03-23T16:36:16;2.88;;;1.27;;
47894;SDS011;33653;52.302;8.134;2024-03-23T16:38:44;2.80;;;1.10;;
47894;SDS011;33653;52.302;8.134;2024-03-23T16:41:16;1.30;;;1.20;;
47894;SDS011;33653;52.302;8.134;2024-03-23T16:43:43;1.10;;;1.10;;
47894;SDS011;33653;52.302;8.134;2024-03-23T16:46:12;1.58;;;1.27;;
47894;SDS011;33653;52.302;8.134;2024-03-23T16:48:42;3.40;;;1.33;;